sensor_id;sensor_type;location;lat;lon;timestamp;temperature;humidity
74923;HTU21D;64715;44.760;37.678;2023-07-13T00:00:10;20.49;81.46
74923;HTU21D;64715;44.760;37.678;2023-07-13T00:01:16;20.49;81.49
74923;HTU21D;64715;44.760;37.678;2023-07-13T00:02:17;20.53;81.46
74923;HTU21D;64715;44.760;37.678;2023-07-13T00:03:18;20.53;81.60
74923;HTU21D;64715;44.760;37.678;2023-07-13T00:04:21;20.54;81.71
74923;HTU21D;64715;44.760;37.678;2023-07-13T00:05:24;20.55;81.59
74923;HTU21D;64715;44.760;37.678;2023-07-13T00:06:25;20.55;81.55
74923;HTU21D;64715;44.760;37.678;2023-07-13T00:07:26;20.55;81.65
74923;HTU21D;64715;44.760;37.678;2023-07-13T00:08:30;20.56;81.69
74923;HTU21D;64715;44.760;37.678;2023-07-13T00:09:33;20.57;81.64
74923;HTU21D;64715;44.760;37.678;2023-07-13T00:10:39;20.57;81.65
74923;HTU21D;64715;44.760;37.678;2023-07-13T00:11:40;20.58;81.77
74923;HTU21D;64715;44.760;37.678;2023-07-13T00:12:41;20.59;81.86
74923;HTU21D;64715;44.760;37.678;2023-07-13T00:13:44;20.59;81.85
74923;HTU21D;64715;44.760;37.678;2023-07-13T00:14:45;20.62;81.78
74923;HTU21D;64715;44.760;37.678;2023-07-13T00:15:46;20.61;81.91
74923;HTU21D;64715;44.760;37.678;2023-07-13T00:16:47;20.61;81.91
74923;HTU21D;64715;44.760;37.678;2023-07-13T00:17:49;20.63;82.03
74923;HTU21D;64715;44.760;37.678;2023-07-13T00:18:51;20.62;81.86
74923;HTU21D;64715;44.760;37.678;2023-07-13T00:19:54;20.63;82.01
74923;HTU21D;64715;44.760;37.678;2023-07-13T00:20:56;20.63;81.95
74923;HTU21D;64715;44.760;37.678;2023-07-13T00:22:05;20.64;81.91
74923;HTU21D;64715;44.760;37.678;2023-07-13T00:23:07;20.63;81.99
74923;HTU21D;64715;44.760;37.678;2023-07-13T00:24:11;20.64;81.97
74923;HTU21D;64715;44.760;37.678;2023-07-13T00:25:16;20.63;82.00
74923;HTU21D;64715;44.760;37.678;2023-07-13T00:26:17;20.64;81.93
74923;HTU21D;64715;44.760;37.678;2023-07-13T00:27:18;20.65;82.01
74923;HTU21D;64715;44.760;37.678;2023-07-13T00:28:19;20.68;82.17
74923;HTU21D;64715;44.760;37.678;2023-07-13T00:29:20;20.69;82.26
74923;HTU21D;64715;44.760;37.678;2023-07-13T00:30:22;20.70;82.30
74923;HTU21D;64715;44.760;37.678;2023-07-13T00:31:23;20.72;82.23
74923;HTU21D;64715;44.760;37.678;2023-07-13T00:32:24;20.73;82.33
74923;HTU21D;64715;44.760;37.678;2023-07-13T00:33:29;20.75;82.53
74923;HTU21D;64715;44.760;37.678;2023-07-13T00:34:32;20.76;82.49
74923;HTU21D;64715;44.760;37.678;2023-07-13T00:35:34;20.78;82.47
74923;HTU21D;64715;44.760;37.678;2023-07-13T00:36:35;20.79;82.54
74923;HTU21D;64715;44.760;37.678;2023-07-13T00:37:36;20.81;82.48
74923;HTU21D;64715;44.760;37.678;2023-07-13T00:38:38;20.83;82.52
74923;HTU21D;64715;44.760;37.678;2023-07-13T00:39:39;20.84;82.45
74923;HTU21D;64715;44.760;37.678;2023-07-13T00:40:40;20.85;82.46
74923;HTU21D;64715;44.760;37.678;2023-07-13T00:41:41;20.86;82.39
74923;HTU21D;64715;44.760;37.678;2023-07-13T00:42:42;20.85;82.36
74923;HTU21D;64715;44.760;37.678;2023-07-13T00:43:43;20.87;82.29
74923;HTU21D;64715;44.760;37.678;2023-07-13T00:46:20;20.87;82.18
74923;HTU21D;64715;44.760;37.678;2023-07-13T00:47:21;20.85;82.10
74923;HTU21D;64715;44.760;37.678;2023-07-13T00:48:29;20.85;82.16
74923;HTU21D;64715;44.760;37.678;2023-07-13T00:49:32;20.83;81.94
74923;HTU21D;64715;44.760;37.678;2023-07-13T00:50:34;20.80;82.00
74923;HTU21D;64715;44.760;37.678;2023-07-13T00:51:59;20.80;81.98
74923;HTU21D;64715;44.760;37.678;2023-07-13T00:53:02;20.79;81.88
74923;HTU21D;64715;44.760;37.678;2023-07-13T00:54:06;20.77;81.83
74923;HTU21D;64715;44.760;37.678;2023-07-13T00:55:09;20.76;81.72
74923;HTU21D;64715;44.760;37.678;2023-07-13T00:56:11;20.74;81.78
74923;HTU21D;64715;44.760;37.678;2023-07-13T00:57:16;20.74;81.80
74923;HTU21D;64715;44.760;37.678;2023-07-13T00:58:18;20.70;81.88
74923;HTU21D;64715;44.760;37.678;2023-07-13T00:59:20;20.70;81.88
74923;HTU21D;64715;44.760;37.678;2023-07-13T01:00:23;20.69;81.81
74923;HTU21D;64715;44.760;37.678;2023-07-13T01:01:26;20.68;81.90
74923;HTU21D;64715;44.760;37.678;2023-07-13T01:02:28;20.65;81.93
74923;HTU21D;64715;44.760;37.678;2023-07-13T01:03:30;20.66;81.85
74923;HTU21D;64715;44.760;37.678;2023-07-13T01:04:33;20.64;81.87
74923;HTU21D;64715;44.760;37.678;2023-07-13T01:05:35;20.62;81.81
74923;HTU21D;64715;44.760;37.678;2023-07-13T01:06:38;20.60;81.79
74923;HTU21D;64715;44.760;37.678;2023-07-13T01:07:41;20.60;81.85
74923;HTU21D;64715;44.760;37.678;2023-07-13T01:08:42;20.58;81.98
74923;HTU21D;64715;44.760;37.678;2023-07-13T01:09:43;20.56;81.99
74923;HTU21D;64715;44.760;37.678;2023-07-13T01:10:55;20.55;81.94
74923;HTU21D;64715;44.760;37.678;2023-07-13T01:11:56;20.55;81.94
74923;HTU21D;64715;44.760;37.678;2023-07-13T01:12:58;20.54;82.07
74923;HTU21D;64715;44.760;37.678;2023-07-13T01:14:00;20.53;81.99
74923;HTU21D;64715;44.760;37.678;2023-07-13T01:15:03;20.51;81.99
74923;HTU21D;64715;44.760;37.678;2023-07-13T01:16:13;20.51;82.00
74923;HTU21D;64715;44.760;37.678;2023-07-13T01:17:15;20.48;82.01
74923;HTU21D;64715;44.760;37.678;2023-07-13T01:18:22;20.47;82.01
74923;HTU21D;64715;44.760;37.678;2023-07-13T01:19:42;20.45;81.98
74923;HTU21D;64715;44.760;37.678;2023-07-13T01:20:58;20.41;82.01
74923;HTU21D;64715;44.760;37.678;2023-07-13T01:21:59;20.41;82.04
74923;HTU21D;64715;44.760;37.678;2023-07-13T01:23:00;20.40;81.99
74923;HTU21D;64715;44.760;37.678;2023-07-13T01:24:04;20.39;82.13
74923;HTU21D;64715;44.760;37.678;2023-07-13T01:25:05;20.37;82.15
74923;HTU21D;64715;44.760;37.678;2023-07-13T01:26:06;20.39;82.41
74923;HTU21D;64715;44.760;37.678;2023-07-13T01:27:09;20.36;82.36
74923;HTU21D;64715;44.760;37.678;2023-07-13T01:28:14;20.36;82.47
74923;HTU21D;64715;44.760;37.678;2023-07-13T01:29:17;20.37;82.38
74923;HTU21D;64715;44.760;37.678;2023-07-13T01:30:18;20.36;82.55
74923;HTU21D;64715;44.760;37.678;2023-07-13T01:31:19;20.35;82.28
74923;HTU21D;64715;44.760;37.678;2023-07-13T01:32:23;20.34;82.40
74923;HTU21D;64715;44.760;37.678;2023-07-13T01:33:26;20.33;82.31
74923;HTU21D;64715;44.760;37.678;2023-07-13T01:34:27;20.31;82.28
74923;HTU21D;64715;44.760;37.678;2023-07-13T01:35:28;20.30;82.28
74923;HTU21D;64715;44.760;37.678;2023-07-13T01:36:29;20.29;82.28
74923;HTU21D;64715;44.760;37.678;2023-07-13T01:37:30;20.27;82.42
74923;HTU21D;64715;44.760;37.678;2023-07-13T01:38:35;20.25;82.29
74923;HTU21D;64715;44.760;37.678;2023-07-13T01:39:36;20.22;82.23
74923;HTU21D;64715;44.760;37.678;2023-07-13T01:40:38;20.21;82.26
74923;HTU21D;64715;44.760;37.678;2023-07-13T01:41:39;20.20;82.28
74923;HTU21D;64715;44.760;37.678;2023-07-13T01:42:41;20.17;82.28
74923;HTU21D;64715;44.760;37.678;2023-07-13T01:43:42;20.17;82.30
74923;HTU21D;64715;44.760;37.678;2023-07-13T01:44:43;20.14;82.32
74923;HTU21D;64715;44.760;37.678;2023-07-13T01:45:44;20.12;82.38
74923;HTU21D;64715;44.760;37.678;2023-07-13T01:46:45;20.11;82.36
74923;HTU21D;64715;44.760;37.678;2023-07-13T01:47:46;20.09;82.44
74923;HTU21D;64715;44.760;37.678;2023-07-13T01:48:47;20.09;82.42
74923;HTU21D;64715;44.760;37.678;2023-07-13T01:49:48;20.07;82.36
74923;HTU21D;64715;44.760;37.678;2023-07-13T01:50:50;20.06;82.43
74923;HTU21D;64715;44.760;37.678;2023-07-13T01:51:51;20.04;82.49
74923;HTU21D;64715;44.760;37.678;2023-07-13T01:52:53;20.05;82.41
74923;HTU21D;64715;44.760;37.678;2023-07-13T01:53:54;20.02;82.43
74923;HTU21D;64715;44.760;37.678;2023-07-13T01:54:55;20.01;82.49
74923;HTU21D;64715;44.760;37.678;2023-07-13T01:55:56;20.01;82.57
74923;HTU21D;64715;44.760;37.678;2023-07-13T01:56:57;20.01;82.68
74923;HTU21D;64715;44.760;37.678;2023-07-13T01:57:58;20.02;82.77
74923;HTU21D;64715;44.760;37.678;2023-07-13T01:58:59;20.02;82.77
74923;HTU21D;64715;44.760;37.678;2023-07-13T02:00:04;20.03;83.00
74923;HTU21D;64715;44.760;37.678;2023-07-13T02:01:16;20.04;82.87
74923;HTU21D;64715;44.760;37.678;2023-07-13T02:02:17;20.04;82.91
74923;HTU21D;64715;44.760;37.678;2023-07-13T02:03:18;20.06;83.13
74923;HTU21D;64715;44.760;37.678;2023-07-13T02:04:20;20.09;83.08
74923;HTU21D;64715;44.760;37.678;2023-07-13T02:05:21;20.11;83.21
74923;HTU21D;64715;44.760;37.678;2023-07-13T02:06:22;20.14;83.26
74923;HTU21D;64715;44.760;37.678;2023-07-13T02:07:23;20.16;83.31
74923;HTU21D;64715;44.760;37.678;2023-07-13T02:08:24;20.18;83.34
74923;HTU21D;64715;44.760;37.678;2023-07-13T02:09:25;20.20;83.45
74923;HTU21D;64715;44.760;37.678;2023-07-13T02:10:26;20.24;83.52
74923;HTU21D;64715;44.760;37.678;2023-07-13T02:11:27;20.26;83.54
74923;HTU21D;64715;44.760;37.678;2023-07-13T02:12:34;20.27;83.55
74923;HTU21D;64715;44.760;37.678;2023-07-13T02:13:35;20.31;83.58
74923;HTU21D;64715;44.760;37.678;2023-07-13T02:14:36;20.32;83.65
74923;HTU21D;64715;44.760;37.678;2023-07-13T02:15:40;20.33;83.67
74923;HTU21D;64715;44.760;37.678;2023-07-13T02:16:42;20.36;83.65
74923;HTU21D;64715;44.760;37.678;2023-07-13T02:17:43;20.37;83.65
74923;HTU21D;64715;44.760;37.678;2023-07-13T02:18:44;20.40;83.52
74923;HTU21D;64715;44.760;37.678;2023-07-13T02:19:46;20.41;83.36
74923;HTU21D;64715;44.760;37.678;2023-07-13T02:20:47;20.41;83.48
74923;HTU21D;64715;44.760;37.678;2023-07-13T02:21:49;20.40;83.42
74923;HTU21D;64715;44.760;37.678;2023-07-13T02:22:50;20.42;83.31
74923;HTU21D;64715;44.760;37.678;2023-07-13T02:23:53;20.41;83.31
74923;HTU21D;64715;44.760;37.678;2023-07-13T02:24:55;20.41;83.32
74923;HTU21D;64715;44.760;37.678;2023-07-13T02:25:57;20.42;83.32
74923;HTU21D;64715;44.760;37.678;2023-07-13T02:26:58;20.42;83.27
74923;HTU21D;64715;44.760;37.678;2023-07-13T02:27:59;20.41;83.31
74923;HTU21D;64715;44.760;37.678;2023-07-13T02:29:00;20.42;83.11
74923;HTU21D;64715;44.760;37.678;2023-07-13T02:30:01;20.41;83.17
74923;HTU21D;64715;44.760;37.678;2023-07-13T02:31:07;20.42;83.13
74923;HTU21D;64715;44.760;37.678;2023-07-13T02:32:09;20.42;83.07
74923;HTU21D;64715;44.760;37.678;2023-07-13T02:33:10;20.41;83.16
74923;HTU21D;64715;44.760;37.678;2023-07-13T02:34:13;20.42;83.00
74923;HTU21D;64715;44.760;37.678;2023-07-13T02:35:14;20.43;83.18
74923;HTU21D;64715;44.760;37.678;2023-07-13T02:36:15;20.42;83.02
74923;HTU21D;64715;44.760;37.678;2023-07-13T02:37:19;20.43;83.10
74923;HTU21D;64715;44.760;37.678;2023-07-13T02:38:20;20.42;83.05
74923;HTU21D;64715;44.760;37.678;2023-07-13T02:39:21;20.43;83.09
74923;HTU21D;64715;44.760;37.678;2023-07-13T02:40:22;20.44;83.04
74923;HTU21D;64715;44.760;37.678;2023-07-13T02:41:23;20.41;83.04
74923;HTU21D;64715;44.760;37.678;2023-07-13T02:42:24;20.43;83.13
74923;HTU21D;64715;44.760;37.678;2023-07-13T02:43:25;20.43;82.97
74923;HTU21D;64715;44.760;37.678;2023-07-13T02:44:26;20.43;83.03
74923;HTU21D;64715;44.760;37.678;2023-07-13T02:45:28;20.44;83.11
74923;HTU21D;64715;44.760;37.678;2023-07-13T02:46:33;20.44;83.05
74923;HTU21D;64715;44.760;37.678;2023-07-13T02:47:35;20.45;83.12
74923;HTU21D;64715;44.760;37.678;2023-07-13T02:48:37;20.46;83.14
74923;HTU21D;64715;44.760;37.678;2023-07-13T02:49:38;20.46;83.10
74923;HTU21D;64715;44.760;37.678;2023-07-13T02:50:39;20.47;83.14
74923;HTU21D;64715;44.760;37.678;2023-07-13T02:51:40;20.48;83.11
74923;HTU21D;64715;44.760;37.678;2023-07-13T02:52:43;20.48;83.10
74923;HTU21D;64715;44.760;37.678;2023-07-13T02:53:44;20.49;83.14
74923;HTU21D;64715;44.760;37.678;2023-07-13T02:54:45;20.49;83.13
74923;HTU21D;64715;44.760;37.678;2023-07-13T02:55:46;20.53;83.18
74923;HTU21D;64715;44.760;37.678;2023-07-13T02:56:49;20.56;83.29
74923;HTU21D;64715;44.760;37.678;2023-07-13T02:57:50;20.64;83.47
74923;HTU21D;64715;44.760;37.678;2023-07-13T02:58:51;20.75;83.52
74923;HTU21D;64715;44.760;37.678;2023-07-13T02:59:52;20.85;83.60
74923;HTU21D;64715;44.760;37.678;2023-07-13T03:00:55;20.92;83.52
74923;HTU21D;64715;44.760;37.678;2023-07-13T03:01:56;20.99;83.41
74923;HTU21D;64715;44.760;37.678;2023-07-13T03:02:57;21.06;83.39
74923;HTU21D;64715;44.760;37.678;2023-07-13T03:03:59;21.10;83.23
74923;HTU21D;64715;44.760;37.678;2023-07-13T03:05:01;21.16;82.96
74923;HTU21D;64715;44.760;37.678;2023-07-13T03:06:04;21.17;82.98
74923;HTU21D;64715;44.760;37.678;2023-07-13T03:07:12;21.20;82.88
74923;HTU21D;64715;44.760;37.678;2023-07-13T03:08:16;21.23;82.84
74923;HTU21D;64715;44.760;37.678;2023-07-13T03:09:19;21.25;82.81
74923;HTU21D;64715;44.760;37.678;2023-07-13T03:10:25;21.39;83.32
74923;HTU21D;64715;44.760;37.678;2023-07-13T03:11:27;21.72;83.98
74923;HTU21D;64715;44.760;37.678;2023-07-13T03:12:36;22.19;84.27
74923;HTU21D;64715;44.760;37.678;2023-07-13T03:13:41;22.75;84.09
74923;HTU21D;64715;44.760;37.678;2023-07-13T03:14:42;23.32;83.79
74923;HTU21D;64715;44.760;37.678;2023-07-13T03:15:48;23.98;83.03
74923;HTU21D;64715;44.760;37.678;2023-07-13T03:16:49;24.60;82.21
74923;HTU21D;64715;44.760;37.678;2023-07-13T03:17:50;25.24;81.18
74923;HTU21D;64715;44.760;37.678;2023-07-13T03:18:51;25.88;80.27
74923;HTU21D;64715;44.760;37.678;2023-07-13T03:19:53;26.53;79.17
74923;HTU21D;64715;44.760;37.678;2023-07-13T03:20:55;27.15;78.05
74923;HTU21D;64715;44.760;37.678;2023-07-13T03:21:56;27.73;76.94
74923;HTU21D;64715;44.760;37.678;2023-07-13T03:22:57;28.33;75.83
74923;HTU21D;64715;44.760;37.678;2023-07-13T03:23:58;28.90;74.70
74923;HTU21D;64715;44.760;37.678;2023-07-13T03:24:59;29.46;73.66
74923;HTU21D;64715;44.760;37.678;2023-07-13T03:26:10;30.04;72.09
74923;HTU21D;64715;44.760;37.678;2023-07-13T03:27:14;30.55;71.29
74923;HTU21D;64715;44.760;37.678;2023-07-13T03:28:17;31.06;70.12
74923;HTU21D;64715;44.760;37.678;2023-07-13T03:29:18;31.46;68.65
74923;HTU21D;64715;44.760;37.678;2023-07-13T03:30:20;31.76;67.38
74923;HTU21D;64715;44.760;37.678;2023-07-13T03:31:27;31.96;66.14
74923;HTU21D;64715;44.760;37.678;2023-07-13T03:32:29;32.07;65.29
74923;HTU21D;64715;44.760;37.678;2023-07-13T03:33:31;32.17;64.73
74923;HTU21D;64715;44.760;37.678;2023-07-13T03:34:32;32.32;64.11
74923;HTU21D;64715;44.760;37.678;2023-07-13T03:35:34;32.48;63.54
74923;HTU21D;64715;44.760;37.678;2023-07-13T03:36:36;32.69;63.22
74923;HTU21D;64715;44.760;37.678;2023-07-13T03:37:40;32.92;62.70
74923;HTU21D;64715;44.760;37.678;2023-07-13T03:38:48;33.23;62.02
74923;HTU21D;64715;44.760;37.678;2023-07-13T03:39:50;33.59;61.26
74923;HTU21D;64715;44.760;37.678;2023-07-13T03:40:53;33.91;60.22
74923;HTU21D;64715;44.760;37.678;2023-07-13T03:41:55;34.20;59.16
74923;HTU21D;64715;44.760;37.678;2023-07-13T03:42:57;34.47;58.49
74923;HTU21D;64715;44.760;37.678;2023-07-13T03:43:57;34.71;57.67
74923;HTU21D;64715;44.760;37.678;2023-07-13T03:45:00;34.96;56.95
74923;HTU21D;64715;44.760;37.678;2023-07-13T03:46:01;35.20;56.22
74923;HTU21D;64715;44.760;37.678;2023-07-13T03:47:02;35.44;55.67
74923;HTU21D;64715;44.760;37.678;2023-07-13T03:48:04;35.71;54.73
74923;HTU21D;64715;44.760;37.678;2023-07-13T03:49:06;35.94;53.87
74923;HTU21D;64715;44.760;37.678;2023-07-13T03:50:07;36.13;53.14
74923;HTU21D;64715;44.760;37.678;2023-07-13T03:51:10;36.32;52.50
74923;HTU21D;64715;44.760;37.678;2023-07-13T03:52:12;36.52;51.89
74923;HTU21D;64715;44.760;37.678;2023-07-13T03:53:12;36.73;51.47
74923;HTU21D;64715;44.760;37.678;2023-07-13T03:54:14;37.00;50.98
74923;HTU21D;64715;44.760;37.678;2023-07-13T03:55:15;37.31;50.37
74923;HTU21D;64715;44.760;37.678;2023-07-13T03:56:17;37.57;49.75
74923;HTU21D;64715;44.760;37.678;2023-07-13T03:57:20;37.88;49.06
74923;HTU21D;64715;44.760;37.678;2023-07-13T03:58:33;38.14;48.05
74923;HTU21D;64715;44.760;37.678;2023-07-13T03:59:40;38.43;47.79
74923;HTU21D;64715;44.760;37.678;2023-07-13T04:00:43;38.63;46.97
74923;HTU21D;64715;44.760;37.678;2023-07-13T04:01:44;38.82;46.28
74923;HTU21D;64715;44.760;37.678;2023-07-13T04:02:46;39.00;45.67
74923;HTU21D;64715;44.760;37.678;2023-07-13T04:03:50;39.15;44.91
74923;HTU21D;64715;44.760;37.678;2023-07-13T04:04:52;39.24;44.11
74923;HTU21D;64715;44.760;37.678;2023-07-13T04:05:55;39.24;43.45
74923;HTU21D;64715;44.760;37.678;2023-07-13T04:07:00;39.20;43.03
74923;HTU21D;64715;44.760;37.678;2023-07-13T04:08:01;39.00;43.00
74923;HTU21D;64715;44.760;37.678;2023-07-13T04:09:03;38.89;42.91
74923;HTU21D;64715;44.760;37.678;2023-07-13T04:10:07;38.86;42.87
74923;HTU21D;64715;44.760;37.678;2023-07-13T04:11:08;38.85;42.79
74923;HTU21D;64715;44.760;37.678;2023-07-13T04:12:11;38.92;42.73
74923;HTU21D;64715;44.760;37.678;2023-07-13T04:13:12;39.04;42.33
74923;HTU21D;64715;44.760;37.678;2023-07-13T04:14:13;38.99;41.68
74923;HTU21D;64715;44.760;37.678;2023-07-13T04:15:14;38.74;41.48
74923;HTU21D;64715;44.760;37.678;2023-07-13T04:16:16;38.36;41.44
74923;HTU21D;64715;44.760;37.678;2023-07-13T04:17:17;37.91;41.56
74923;HTU21D;64715;44.760;37.678;2023-07-13T04:18:19;37.41;41.82
74923;HTU21D;64715;44.760;37.678;2023-07-13T04:19:23;36.86;42.23
74923;HTU21D;64715;44.760;37.678;2023-07-13T04:20:25;36.39;42.64
74923;HTU21D;64715;44.760;37.678;2023-07-13T04:21:28;35.92;43.00
74923;HTU21D;64715;44.760;37.678;2023-07-13T04:22:29;35.49;43.48
74923;HTU21D;64715;44.760;37.678;2023-07-13T04:23:30;35.05;44.03
74923;HTU21D;64715;44.760;37.678;2023-07-13T04:24:31;34.62;44.52
74923;HTU21D;64715;44.760;37.678;2023-07-13T04:25:33;34.22;44.99
74923;HTU21D;64715;44.760;37.678;2023-07-13T04:26:34;33.81;45.51
74923;HTU21D;64715;44.760;37.678;2023-07-13T04:27:39;33.45;45.95
74923;HTU21D;64715;44.760;37.678;2023-07-13T04:28:41;33.09;46.63
74923;HTU21D;64715;44.760;37.678;2023-07-13T04:29:42;32.74;47.00
74923;HTU21D;64715;44.760;37.678;2023-07-13T04:30:44;32.45;47.50
74923;HTU21D;64715;44.760;37.678;2023-07-13T04:31:45;32.20;48.24
74923;HTU21D;64715;44.760;37.678;2023-07-13T04:32:47;32.02;48.58
74923;HTU21D;64715;44.760;37.678;2023-07-13T04:33:48;31.84;48.88
74923;HTU21D;64715;44.760;37.678;2023-07-13T04:34:50;31.66;49.23
74923;HTU21D;64715;44.760;37.678;2023-07-13T04:35:54;31.53;49.56
74923;HTU21D;64715;44.760;37.678;2023-07-13T04:36:56;31.42;49.82
74923;HTU21D;64715;44.760;37.678;2023-07-13T04:37:57;31.36;50.30
74923;HTU21D;64715;44.760;37.678;2023-07-13T04:38:58;31.48;51.00
74923;HTU21D;64715;44.760;37.678;2023-07-13T04:39:59;31.75;51.01
74923;HTU21D;64715;44.760;37.678;2023-07-13T04:41:04;32.03;50.66
74923;HTU21D;64715;44.760;37.678;2023-07-13T04:42:05;32.41;50.50
74923;HTU21D;64715;44.760;37.678;2023-07-13T04:43:06;32.89;50.06
74923;HTU21D;64715;44.760;37.678;2023-07-13T04:44:08;33.33;49.12
74923;HTU21D;64715;44.760;37.678;2023-07-13T04:45:09;33.51;48.31
74923;HTU21D;64715;44.760;37.678;2023-07-13T04:46:12;33.47;47.93
74923;HTU21D;64715;44.760;37.678;2023-07-13T04:47:14;33.28;47.68
74923;HTU21D;64715;44.760;37.678;2023-07-13T04:48:15;33.05;47.87
74923;HTU21D;64715;44.760;37.678;2023-07-13T04:49:16;32.87;48.34
74923;HTU21D;64715;44.760;37.678;2023-07-13T04:50:17;32.81;48.48
74923;HTU21D;64715;44.760;37.678;2023-07-13T04:51:21;32.67;48.43
74923;HTU21D;64715;44.760;37.678;2023-07-13T04:52:22;32.52;48.63
74923;HTU21D;64715;44.760;37.678;2023-07-13T04:53:23;32.41;48.86
74923;HTU21D;64715;44.760;37.678;2023-07-13T04:54:24;32.31;48.91
74923;HTU21D;64715;44.760;37.678;2023-07-13T04:55:25;32.14;48.89
74923;HTU21D;64715;44.760;37.678;2023-07-13T04:56:31;31.89;49.04
74923;HTU21D;64715;44.760;37.678;2023-07-13T04:57:32;31.64;49.33
74923;HTU21D;64715;44.760;37.678;2023-07-13T04:58:33;31.39;49.64
74923;HTU21D;64715;44.760;37.678;2023-07-13T04:59:35;31.13;49.94
74923;HTU21D;64715;44.760;37.678;2023-07-13T05:00:36;30.89;50.46
74923;HTU21D;64715;44.760;37.678;2023-07-13T05:01:37;30.68;50.93
74923;HTU21D;64715;44.760;37.678;2023-07-13T05:02:39;30.50;51.33
74923;HTU21D;64715;44.760;37.678;2023-07-13T05:03:40;30.49;51.84
74923;HTU21D;64715;44.760;37.678;2023-07-13T05:04:41;30.46;51.76
74923;HTU21D;64715;44.760;37.678;2023-07-13T05:05:42;30.37;51.83
74923;HTU21D;64715;44.760;37.678;2023-07-13T05:06:43;30.31;51.96
74923;HTU21D;64715;44.760;37.678;2023-07-13T05:07:44;30.20;52.20
74923;HTU21D;64715;44.760;37.678;2023-07-13T05:08:45;30.08;52.32
74923;HTU21D;64715;44.760;37.678;2023-07-13T05:09:46;29.97;52.46
74923;HTU21D;64715;44.760;37.678;2023-07-13T05:10:48;29.83;52.55
74923;HTU21D;64715;44.760;37.678;2023-07-13T05:11:48;29.67;52.82
74923;HTU21D;64715;44.760;37.678;2023-07-13T05:12:50;29.61;53.33
74923;HTU21D;64715;44.760;37.678;2023-07-13T05:13:51;29.59;53.59
74923;HTU21D;64715;44.760;37.678;2023-07-13T05:14:52;29.52;53.46
74923;HTU21D;64715;44.760;37.678;2023-07-13T05:16:01;29.43;53.62
74923;HTU21D;64715;44.760;37.678;2023-07-13T05:17:03;29.31;53.76
74923;HTU21D;64715;44.760;37.678;2023-07-13T05:18:05;29.16;53.96
74923;HTU21D;64715;44.760;37.678;2023-07-13T05:19:06;29.01;54.14
74923;HTU21D;64715;44.760;37.678;2023-07-13T05:20:09;28.83;54.47
74923;HTU21D;64715;44.760;37.678;2023-07-13T05:21:10;28.67;54.68
74923;HTU21D;64715;44.760;37.678;2023-07-13T05:22:12;28.50;54.84
74923;HTU21D;64715;44.760;37.678;2023-07-13T05:23:13;28.33;55.17
74923;HTU21D;64715;44.760;37.678;2023-07-13T05:24:14;28.20;55.47
74923;HTU21D;64715;44.760;37.678;2023-07-13T05:25:15;28.05;55.88
74923;HTU21D;64715;44.760;37.678;2023-07-13T05:26:16;27.93;56.07
74923;HTU21D;64715;44.760;37.678;2023-07-13T05:27:17;27.82;56.32
74923;HTU21D;64715;44.760;37.678;2023-07-13T05:28:18;27.72;56.56
74923;HTU21D;64715;44.760;37.678;2023-07-13T05:29:20;27.64;56.65
74923;HTU21D;64715;44.760;37.678;2023-07-13T05:30:21;27.63;57.00
74923;HTU21D;64715;44.760;37.678;2023-07-13T05:31:22;27.60;57.19
74923;HTU21D;64715;44.760;37.678;2023-07-13T05:32:23;27.61;57.20
74923;HTU21D;64715;44.760;37.678;2023-07-13T05:33:24;27.61;57.29
74923;HTU21D;64715;44.760;37.678;2023-07-13T05:34:25;27.59;57.47
74923;HTU21D;64715;44.760;37.678;2023-07-13T05:35:27;27.58;57.41
74923;HTU21D;64715;44.760;37.678;2023-07-13T05:36:28;27.55;57.51
74923;HTU21D;64715;44.760;37.678;2023-07-13T05:37:29;27.47;57.58
74923;HTU21D;64715;44.760;37.678;2023-07-13T05:38:30;27.40;57.61
74923;HTU21D;64715;44.760;37.678;2023-07-13T05:39:31;27.34;57.67
74923;HTU21D;64715;44.760;37.678;2023-07-13T05:40:32;27.30;57.77
74923;HTU21D;64715;44.760;37.678;2023-07-13T05:41:33;27.24;57.87
74923;HTU21D;64715;44.760;37.678;2023-07-13T05:42:34;27.21;57.99
74923;HTU21D;64715;44.760;37.678;2023-07-13T05:43:35;27.21;58.22
74923;HTU21D;64715;44.760;37.678;2023-07-13T05:44:36;27.24;58.94
74923;HTU21D;64715;44.760;37.678;2023-07-13T05:45:37;27.39;59.66
74923;HTU21D;64715;44.760;37.678;2023-07-13T05:46:38;27.67;59.90
74923;HTU21D;64715;44.760;37.678;2023-07-13T05:47:40;27.90;59.52
74923;HTU21D;64715;44.760;37.678;2023-07-13T05:48:42;28.11;59.15
74923;HTU21D;64715;44.760;37.678;2023-07-13T05:49:43;28.27;58.90
74923;HTU21D;64715;44.760;37.678;2023-07-13T05:50:44;28.48;58.90
74923;HTU21D;64715;44.760;37.678;2023-07-13T05:51:45;28.67;58.30
74923;HTU21D;64715;44.760;37.678;2023-07-13T05:52:46;28.78;57.71
74923;HTU21D;64715;44.760;37.678;2023-07-13T05:53:47;28.86;57.45
74923;HTU21D;64715;44.760;37.678;2023-07-13T05:54:48;28.91;57.17
74923;HTU21D;64715;44.760;37.678;2023-07-13T05:55:48;28.92;56.78
74923;HTU21D;64715;44.760;37.678;2023-07-13T05:56:53;28.91;56.52
74923;HTU21D;64715;44.760;37.678;2023-07-13T05:57:54;28.89;56.26
74923;HTU21D;64715;44.760;37.678;2023-07-13T05:58:56;28.85;56.12
74923;HTU21D;64715;44.760;37.678;2023-07-13T05:59:57;28.80;55.90
74923;HTU21D;64715;44.760;37.678;2023-07-13T06:01:00;28.74;55.71
74923;HTU21D;64715;44.760;37.678;2023-07-13T06:02:02;28.67;55.70
74923;HTU21D;64715;44.760;37.678;2023-07-13T06:03:03;28.56;55.72
74923;HTU21D;64715;44.760;37.678;2023-07-13T06:04:04;28.49;55.82
74923;HTU21D;64715;44.760;37.678;2023-07-13T06:05:05;28.43;55.84
74923;HTU21D;64715;44.760;37.678;2023-07-13T06:06:09;28.35;55.83
74923;HTU21D;64715;44.760;37.678;2023-07-13T06:07:10;28.30;55.87
74923;HTU21D;64715;44.760;37.678;2023-07-13T06:08:11;28.25;56.13
74923;HTU21D;64715;44.760;37.678;2023-07-13T06:09:13;28.24;56.74
74923;HTU21D;64715;44.760;37.678;2023-07-13T06:10:13;28.29;57.35
74923;HTU21D;64715;44.760;37.678;2023-07-13T06:11:17;28.42;57.71
74923;HTU21D;64715;44.760;37.678;2023-07-13T06:12:19;28.57;57.32
74923;HTU21D;64715;44.760;37.678;2023-07-13T06:13:20;28.69;57.03
74923;HTU21D;64715;44.760;37.678;2023-07-13T06:14:20;28.82;57.17
74923;HTU21D;64715;44.760;37.678;2023-07-13T06:15:21;28.98;57.03
74923;HTU21D;64715;44.760;37.678;2023-07-13T06:16:23;29.13;56.74
74923;HTU21D;64715;44.760;37.678;2023-07-13T06:17:24;29.29;56.58
74923;HTU21D;64715;44.760;37.678;2023-07-13T06:18:25;29.48;56.41
74923;HTU21D;64715;44.760;37.678;2023-07-13T06:19:26;29.60;56.11
74923;HTU21D;64715;44.760;37.678;2023-07-13T06:20:28;29.70;55.98
74923;HTU21D;64715;44.760;37.678;2023-07-13T06:21:30;29.78;55.82
74923;HTU21D;64715;44.760;37.678;2023-07-13T06:22:30;29.88;55.57